createdAt,value
2023-05-12T00:01:12.528Z,13.10
2023-05-12T00:03:40.243Z,13.10
2023-05-12T00:06:07.618Z,13.10
2023-05-12T00:08:35.513Z,13.30
2023-05-12T00:11:03.045Z,13.50
2023-05-12T00:13:30.619Z,13.40
2023-05-12T00:15:59.509Z,13.30
2023-05-12T00:18:26.825Z,13.30
2023-05-12T00:20:55.130Z,13.20
2023-05-12T00:23:22.999Z,13.20
2023-05-12T00:25:50.569Z,13.20
2023-05-12T00:28:18.065Z,13.10
2023-05-12T00:30:46.402Z,13.00
2023-05-12T00:33:13.958Z,13.00
2023-05-12T00:35:41.478Z,13.00
2023-05-12T00:38:09.072Z,13.00
2023-05-12T00:40:36.613Z,13.00
2023-05-12T00:43:04.125Z,13.00
2023-05-12T00:45:32.545Z,12.90
2023-05-12T00:48:00.070Z,12.90
2023-05-12T00:50:27.554Z,12.90
2023-05-12T00:52:55.889Z,12.90
2023-05-12T00:55:23.413Z,12.80
2023-05-12T00:57:51.002Z,12.90
2023-05-12T01:00:18.850Z,12.80
2023-05-12T01:02:46.154Z,12.80
2023-05-12T01:05:13.600Z,12.80
2023-05-12T01:07:41.982Z,12.70
2023-05-12T01:10:19.376Z,12.70
2023-05-12T01:12:46.780Z,12.70
2023-05-12T01:15:14.323Z,12.70
2023-05-12T01:17:41.938Z,12.70
2023-05-12T01:20:09.581Z,12.70
2023-05-12T01:22:37.136Z,12.70
2023-05-12T01:25:04.687Z,12.70
2023-05-12T01:27:32.645Z,12.90
2023-05-12T01:30:00.187Z,12.90
2023-05-12T01:32:28.487Z,12.80
2023-05-12T01:34:56.339Z,12.80
2023-05-12T01:37:23.856Z,12.80
2023-05-12T01:39:52.167Z,12.70
2023-05-12T01:42:19.777Z,12.70
2023-05-12T01:44:47.298Z,12.70
2023-05-12T01:47:14.818Z,12.70
2023-05-12T01:49:42.411Z,12.70
2023-05-12T01:52:09.925Z,12.70
2023-05-12T01:54:38.216Z,12.70
2023-05-12T01:57:05.886Z,12.70
2023-05-12T01:59:33.432Z,12.70
2023-05-12T02:02:01.037Z,12.70
2023-05-12T02:04:28.535Z,12.70
2023-05-12T02:06:56.852Z,12.90
2023-05-12T02:09:25.968Z,12.90
2023-05-12T02:11:52.290Z,12.90
2023-05-12T02:14:19.835Z,12.90
2023-05-12T02:16:50.505Z,12.80
2023-05-12T02:19:17.979Z,13.10
2023-05-12T02:21:45.502Z,13.00
2023-05-12T02:24:14.778Z,13.00
2023-05-12T02:26:40.938Z,12.90
2023-05-12T02:29:08.468Z,12.90
2023-05-12T02:31:36.001Z,12.90
2023-05-12T02:34:05.787Z,13.10
2023-05-12T02:36:31.145Z,13.10
2023-05-12T02:38:58.682Z,13.00
2023-05-12T02:41:27.016Z,12.90
2023-05-12T02:43:54.536Z,12.90
2023-05-12T02:46:22.140Z,12.90
2023-05-12T02:48:50.673Z,12.80
2023-05-12T02:51:18.207Z,12.80
2023-05-12T02:53:46.512Z,12.80
2023-05-12T02:56:14.377Z,12.80
2023-05-12T02:58:41.917Z,12.80
2023-05-12T03:01:11.502Z,12.80
2023-05-12T03:03:38.047Z,12.70
2023-05-12T03:06:05.326Z,12.70
2023-05-12T03:08:32.849Z,12.70
2023-05-12T03:11:01.205Z,12.70
2023-05-12T03:13:28.798Z,12.70
2023-05-12T03:15:57.100Z,12.70
2023-05-12T03:18:24.689Z,12.70
2023-05-12T03:20:52.207Z,12.70
2023-05-12T03:23:19.752Z,12.70
2023-05-12T03:25:48.109Z,12.70
2023-05-12T03:28:15.678Z,12.70
2023-05-12T03:30:43.236Z,12.70
2023-05-12T03:33:10.824Z,12.70
2023-05-12T03:35:39.131Z,12.90
2023-05-12T03:38:06.653Z,12.90
2023-05-12T03:40:34.244Z,12.90
2023-05-12T03:43:01.765Z,12.80
2023-05-12T03:45:29.307Z,12.80
2023-05-12T03:47:57.023Z,12.90
2023-05-12T03:50:24.558Z,12.80
2023-05-12T03:52:52.099Z,12.70
2023-05-12T03:55:20.471Z,12.60
2023-05-12T03:57:48.783Z,12.50
2023-05-12T04:00:16.422Z,12.50
2023-05-12T04:02:44.420Z,12.50
2023-05-12T04:05:11.820Z,12.40
2023-05-12T04:07:39.376Z,12.60
2023-05-12T04:10:07.206Z,12.60
2023-05-12T04:12:34.789Z,12.60
2023-05-12T04:15:02.292Z,12.80
2023-05-12T04:17:31.032Z,12.70
2023-05-12T04:19:58.529Z,12.70
2023-05-12T04:22:26.831Z,12.60
2023-05-12T04:24:54.560Z,12.60
2023-05-12T04:27:22.111Z,12.60
2023-05-12T04:29:49.621Z,12.60
2023-05-12T04:32:17.299Z,12.60
2023-05-12T04:34:44.738Z,12.80
2023-05-12T04:37:12.281Z,12.80
2023-05-12T04:39:40.827Z,12.70
2023-05-12T04:42:08.380Z,12.70
2023-05-12T04:44:35.905Z,12.70
2023-05-12T04:47:03.495Z,12.90
2023-05-12T04:49:31.033Z,12.80
2023-05-12T04:51:58.575Z,12.80
2023-05-12T04:54:26.167Z,12.70
2023-05-12T04:56:53.700Z,12.70
2023-05-12T04:59:21.269Z,12.70
2023-05-12T05:01:49.490Z,12.90
2023-05-12T05:04:16.972Z,12.90
2023-05-12T05:06:44.488Z,12.80
2023-05-12T05:09:12.080Z,12.80
2023-05-12T05:11:40.360Z,12.70
2023-05-12T05:14:08.275Z,12.70
2023-05-12T05:16:36.121Z,12.70
2023-05-12T05:19:06.496Z,12.70
2023-05-12T05:21:31.945Z,12.70
2023-05-12T05:23:59.510Z,12.70
2023-05-12T05:26:27.044Z,12.70
2023-05-12T05:28:54.571Z,12.70
2023-05-12T05:31:22.226Z,12.70
2023-05-12T05:33:50.532Z,12.70
2023-05-12T05:36:18.013Z,12.70
2023-05-12T05:38:45.573Z,12.70
2023-05-12T05:41:13.128Z,12.70
2023-05-12T05:43:40.662Z,12.70
2023-05-12T05:46:09.018Z,12.70
2023-05-12T05:48:39.171Z,12.70
2023-05-12T05:51:07.473Z,12.80
2023-05-12T05:53:35.036Z,12.70
2023-05-12T05:56:02.586Z,12.80
2023-05-12T05:58:30.101Z,12.80
2023-05-12T06:00:58.443Z,12.80
2023-05-12T06:03:26.069Z,12.80
2023-05-12T06:05:53.528Z,12.80
2023-05-12T06:08:21.118Z,12.80
2023-05-12T06:10:48.658Z,12.90
2023-05-12T06:13:16.176Z,12.90
2023-05-12T06:15:44.607Z,12.90
2023-05-12T06:18:12.190Z,12.80
2023-05-12T06:20:39.692Z,12.80
2023-05-12T06:23:08.043Z,12.90
2023-05-12T06:25:35.567Z,12.90
2023-05-12T06:28:03.116Z,12.90
2023-05-12T06:30:30.690Z,13.20
2023-05-12T06:32:58.256Z,13.30
2023-05-12T06:35:25.742Z,13.30
2023-05-12T06:37:54.086Z,13.40
2023-05-12T06:40:21.622Z,13.30
2023-05-12T06:42:49.257Z,13.40
2023-05-12T06:45:17.632Z,13.70
2023-05-12T06:47:45.077Z,13.60
2023-05-12T06:50:12.586Z,13.70
2023-05-12T06:52:40.172Z,13.90
2023-05-12T06:55:07.751Z,13.90
2023-05-12T06:57:35.283Z,13.90
2023-05-12T07:00:02.868Z,13.90
2023-05-12T07:02:30.483Z,14.00
2023-05-12T07:04:57.970Z,14.10
2023-05-12T07:07:25.557Z,14.10
2023-05-12T07:09:53.857Z,14.20
2023-05-12T07:12:21.388Z,14.20
2023-05-12T07:14:49.734Z,14.10
2023-05-12T07:17:17.268Z,14.00
2023-05-12T07:19:44.896Z,14.00
2023-05-12T07:22:14.315Z,14.20
2023-05-12T07:24:42.579Z,14.10
2023-05-12T07:27:10.131Z,14.10
2023-05-12T07:29:38.733Z,14.10
2023-05-12T07:32:06.298Z,14.10
2023-05-12T07:34:33.840Z,14.10
2023-05-12T07:37:02.545Z,14.10
2023-05-12T07:39:30.132Z,14.10
2023-05-12T07:41:57.642Z,14.10
2023-05-12T07:44:26.065Z,14.10
2023-05-12T07:46:53.602Z,14.10
2023-05-12T07:49:21.108Z,14.10
2023-05-12T07:51:48.697Z,14.20
2023-05-12T07:54:16.238Z,14.20
2023-05-12T07:56:43.772Z,14.20
2023-05-12T07:59:11.347Z,14.20
2023-05-12T08:01:38.984Z,14.30
2023-05-12T08:04:06.481Z,14.30
2023-05-12T08:06:34.260Z,14.40
2023-05-12T08:09:01.793Z,14.40
2023-05-12T08:11:29.336Z,14.40
2023-05-12T08:13:56.912Z,14.50
2023-05-12T08:16:24.479Z,14.50
2023-05-12T08:18:52.012Z,14.70
2023-05-12T08:21:19.563Z,14.80
2023-05-12T08:23:47.077Z,14.80
2023-05-12T08:26:17.487Z,14.80
2023-05-12T08:28:45.838Z,14.80
2023-05-12T08:31:13.465Z,14.80
2023-05-12T08:33:40.899Z,14.80
2023-05-12T08:36:09.251Z,14.80
2023-05-12T08:38:36.771Z,14.80
2023-05-12T08:41:26.422Z,14.80
2023-05-12T08:43:53.950Z,14.80
2023-05-12T08:46:22.255Z,14.70
2023-05-12T08:48:49.840Z,14.80
2023-05-12T08:51:17.362Z,14.90
2023-05-12T08:53:44.896Z,14.90
2023-05-12T08:58:42.057Z,15.00
2023-05-12T09:01:08.319Z,15.10
2023-05-12T09:03:36.675Z,15.30
2023-05-12T09:06:04.185Z,15.30
2023-05-12T09:08:34.406Z,15.30
2023-05-12T09:11:02.263Z,15.60
2023-05-12T09:13:47.829Z,15.60
2023-05-12T09:16:15.445Z,15.60
2023-05-12T09:18:52.219Z,15.70
2023-05-12T09:21:20.496Z,15.90
2023-05-12T09:23:54.167Z,15.90
2023-05-12T09:26:21.671Z,16.00
2023-05-12T09:28:50.047Z,16.50
2023-05-12T09:31:17.639Z,16.50
2023-05-12T09:33:45.112Z,16.50
2023-05-12T09:36:12.677Z,16.50
2023-05-12T09:38:40.204Z,16.80
2023-05-12T09:41:07.731Z,16.70
2023-05-12T09:43:35.312Z,16.60
2023-05-12T09:46:06.322Z,16.50
2023-05-12T09:48:33.810Z,16.50
2023-05-12T09:51:02.223Z,16.40
2023-05-12T09:53:29.733Z,16.40
2023-05-12T09:55:57.314Z,16.40
2023-05-12T09:58:24.891Z,16.40
2023-05-12T10:01:17.630Z,16.40
2023-05-12T10:03:20.718Z,16.30
2023-05-12T10:05:50.977Z,16.30
2023-05-12T10:08:18.513Z,16.30
2023-05-12T10:10:46.026Z,16.20
2023-05-12T10:13:14.402Z,16.20
2023-05-12T10:15:41.904Z,16.20
2023-05-12T10:18:09.472Z,16.30
2023-05-12T10:20:37.110Z,16.50
2023-05-12T10:23:04.636Z,16.60
2023-05-12T10:25:32.171Z,16.60
2023-05-12T10:27:59.738Z,16.70
2023-05-12T10:30:27.272Z,16.80
2023-05-12T10:32:54.875Z,16.80
2023-05-12T10:35:22.525Z,16.80
2023-05-12T10:37:49.926Z,16.70
2023-05-12T10:40:23.446Z,16.60
2023-05-12T10:42:51.766Z,16.60
2023-05-12T10:45:20.450Z,16.60
2023-05-12T10:47:47.641Z,16.60
2023-05-12T10:50:15.222Z,16.50
2023-05-12T10:52:58.389Z,16.60
2023-05-12T10:55:32.550Z,16.70
2023-05-12T10:58:12.794Z,16.70
2023-05-12T11:00:45.948Z,16.80
2023-05-12T11:03:17.089Z,17.00
2023-05-12T11:05:44.233Z,17.00
2023-05-12T11:08:11.976Z,17.00
2023-05-12T11:10:39.724Z,17.10
2023-05-12T11:13:06.504Z,17.10
2023-05-12T11:15:34.635Z,17.20
2023-05-12T11:18:04.896Z,17.30
2023-05-12T11:20:33.102Z,17.80
2023-05-12T11:23:01.441Z,17.90
2023-05-12T11:25:29.016Z,17.80
2023-05-12T11:27:56.515Z,17.90
2023-05-12T11:30:24.097Z,18.20
2023-05-12T11:32:51.656Z,18.50
2023-05-12T11:35:19.466Z,18.50
2023-05-12T11:37:46.767Z,18.50
2023-05-12T11:40:20.187Z,18.50
2023-05-12T11:42:50.135Z,18.40
2023-05-12T11:45:22.551Z,18.40
2023-05-12T11:47:49.718Z,18.40
2023-05-12T11:50:20.962Z,18.50
2023-05-12T11:52:48.530Z,18.50
2023-05-12T11:55:16.050Z,18.30
2023-05-12T11:57:43.584Z,18.20
2023-05-12T12:00:12.034Z,17.90
2023-05-12T12:02:39.736Z,17.80
2023-05-12T12:05:09.211Z,17.70
2023-05-12T12:07:37.578Z,17.50
2023-05-12T12:10:14.117Z,17.60
2023-05-12T12:12:44.676Z,17.40
2023-05-12T12:15:12.260Z,17.50
2023-05-12T12:17:40.801Z,17.40
2023-05-12T12:20:09.425Z,17.30
2023-05-12T12:22:36.669Z,17.30
2023-05-12T12:25:04.228Z,17.20
2023-05-12T12:27:31.759Z,17.20
2023-05-12T12:29:59.267Z,17.20
2023-05-12T12:32:27.616Z,17.20
2023-05-12T12:34:55.178Z,17.20
2023-05-12T12:37:22.712Z,17.20
2023-05-12T12:39:50.236Z,17.30
2023-05-12T12:42:17.821Z,17.60
2023-05-12T12:44:45.356Z,17.70
2023-05-12T12:47:13.012Z,17.80
2023-05-12T12:49:41.240Z,18.00
2023-05-12T12:52:08.776Z,18.00
2023-05-12T12:54:36.354Z,18.10
2023-05-12T12:57:03.908Z,18.40
2023-05-12T12:59:31.440Z,18.40
2023-05-12T13:01:59.001Z,18.40
2023-05-12T13:04:27.339Z,18.30
2023-05-12T13:06:54.861Z,18.30
2023-05-12T13:09:22.407Z,18.00
2023-05-12T13:11:49.984Z,17.70
2023-05-12T13:14:17.512Z,17.50
2023-05-12T13:16:45.118Z,17.40
2023-05-12T13:19:13.441Z,17.30
2023-05-12T13:21:40.907Z,17.20
2023-05-12T13:24:08.431Z,17.20
2023-05-12T13:26:36.761Z,17.20
2023-05-12T13:29:04.321Z,17.20
2023-05-12T13:31:32.033Z,17.20
2023-05-12T13:34:00.258Z,17.10
2023-05-12T13:36:27.797Z,17.10
2023-05-12T13:38:55.311Z,17.20
2023-05-12T13:41:23.678Z,17.30
2023-05-12T13:43:51.189Z,17.30
2023-05-12T13:46:18.747Z,17.40
2023-05-12T13:48:47.059Z,17.80
2023-05-12T13:51:14.587Z,17.80
2023-05-12T13:53:42.119Z,17.70
2023-05-12T13:56:10.496Z,17.80
2023-05-12T13:58:38.003Z,17.80
2023-05-12T14:01:08.006Z,17.70
2023-05-12T14:03:33.223Z,17.50
2023-05-12T14:06:00.733Z,17.20
2023-05-12T14:08:28.288Z,16.90
2023-05-12T14:10:56.610Z,16.50
2023-05-12T14:13:24.134Z,16.50
2023-05-12T14:15:52.026Z,16.40
2023-05-12T14:18:19.233Z,16.40
2023-05-12T14:20:47.526Z,16.40
2023-05-12T14:23:15.061Z,16.30
2023-05-12T14:25:42.621Z,16.40
2023-05-12T14:28:10.255Z,16.40
2023-05-12T14:30:37.791Z,16.40
2023-05-12T14:33:05.318Z,16.50
2023-05-12T14:35:32.811Z,16.50
2023-05-12T14:38:00.299Z,16.50
2023-05-12T14:40:27.859Z,16.60
2023-05-12T14:42:55.492Z,16.60
2023-05-12T14:45:23.158Z,16.90
2023-05-12T14:47:50.577Z,17.20
2023-05-12T14:50:18.224Z,17.50
2023-05-12T14:52:45.620Z,17.40
2023-05-12T14:55:13.225Z,17.40
2023-05-12T14:57:43.699Z,17.50
2023-05-12T15:00:11.251Z,17.50
2023-05-12T15:02:38.979Z,17.70
2023-05-12T15:05:06.477Z,17.60
2023-05-12T15:07:34.016Z,17.50
2023-05-12T15:10:01.627Z,17.40
2023-05-12T15:12:29.134Z,17.30
2023-05-12T15:14:57.426Z,17.20
2023-05-12T15:17:25.560Z,17.20
2023-05-12T15:19:53.058Z,17.20
2023-05-12T15:22:20.594Z,17.10
2023-05-12T15:24:48.932Z,16.90
2023-05-12T15:27:16.462Z,16.90
2023-05-12T15:29:44.000Z,16.90
2023-05-12T15:32:12.341Z,16.70
2023-05-12T15:34:40.139Z,16.70
2023-05-12T15:37:07.687Z,16.70
2023-05-12T15:39:36.009Z,16.90
2023-05-12T15:42:04.341Z,16.80
2023-05-12T15:44:31.062Z,16.80
2023-05-12T15:46:58.785Z,16.90
2023-05-12T15:49:26.943Z,16.90
2023-05-12T15:51:54.467Z,16.80
2023-05-12T15:54:22.808Z,17.00
2023-05-12T15:56:50.340Z,17.00
2023-05-12T15:59:17.859Z,17.10
2023-05-12T16:01:46.236Z,17.20
2023-05-12T16:04:13.811Z,17.10
2023-05-12T16:06:41.268Z,17.30
2023-05-12T16:09:09.640Z,17.40
2023-05-12T16:11:37.925Z,17.40
2023-05-12T16:14:05.462Z,17.40
2023-05-12T16:16:33.858Z,17.40
2023-05-12T16:19:01.385Z,17.40
2023-05-12T16:21:28.888Z,17.50
2023-05-12T16:23:56.453Z,17.50
2023-05-12T16:26:24.017Z,17.60
2023-05-12T16:28:52.279Z,17.70
2023-05-12T16:31:19.943Z,17.70
2023-05-12T16:33:47.403Z,17.80
2023-05-12T16:36:16.120Z,17.90
2023-05-12T16:38:43.314Z,18.10
2023-05-12T16:41:10.836Z,18.00
2023-05-12T16:43:38.363Z,18.10
2023-05-12T16:46:05.995Z,18.10
2023-05-12T16:48:36.573Z,18.10
2023-05-12T16:51:04.129Z,18.10
2023-05-12T16:53:31.923Z,18.10
2023-05-12T16:55:59.225Z,18.30
2023-05-12T16:58:26.752Z,18.20
2023-05-12T17:00:55.672Z,18.20
2023-05-12T17:03:23.508Z,18.20
2023-05-12T17:05:51.504Z,18.00
2023-05-12T17:08:19.117Z,18.00
2023-05-12T17:10:46.599Z,17.90
2023-05-12T17:13:14.115Z,17.80
2023-05-12T17:15:41.775Z,17.70
2023-05-12T17:18:09.380Z,17.60
2023-05-12T17:20:36.844Z,17.50
2023-05-12T17:23:05.443Z,17.20
2023-05-12T17:25:32.963Z,17.20
2023-05-12T17:28:00.493Z,17.20
2023-05-12T17:30:28.136Z,17.10
2023-05-12T17:32:55.690Z,17.10
2023-05-12T17:35:24.163Z,17.10
2023-05-12T17:37:51.575Z,17.10
2023-05-12T17:40:19.060Z,17.00
2023-05-12T17:42:47.376Z,16.90
2023-05-12T17:45:14.955Z,16.90
2023-05-12T17:47:42.515Z,16.90
2023-05-12T17:50:12.681Z,16.80
2023-05-12T17:52:41.012Z,16.70
2023-05-12T17:55:08.590Z,16.70
2023-05-12T17:57:36.111Z,16.70
2023-05-12T18:00:03.660Z,16.80
2023-05-12T18:02:31.260Z,16.80
2023-05-12T18:04:59.488Z,16.70
2023-05-12T18:07:27.393Z,16.60
2023-05-12T18:09:54.880Z,16.60
2023-05-12T18:12:23.183Z,16.40
2023-05-12T18:14:50.747Z,16.40
2023-05-12T18:17:18.335Z,16.40
2023-05-12T18:19:46.587Z,16.20
2023-05-12T18:22:14.154Z,16.20
2023-05-12T18:24:41.673Z,16.10
2023-05-12T18:27:10.007Z,16.00
2023-05-12T18:29:38.047Z,16.00
2023-05-12T18:32:05.581Z,16.00
2023-05-12T18:34:33.093Z,15.90
2023-05-12T18:37:00.717Z,15.90
2023-05-12T18:39:28.555Z,15.90
2023-05-12T18:41:56.848Z,15.70
2023-05-12T18:44:25.347Z,15.70
2023-05-12T18:46:53.005Z,15.70
2023-05-12T18:49:20.454Z,15.70
2023-05-12T18:51:48.041Z,15.60
2023-05-12T18:54:15.563Z,15.50
2023-05-12T18:56:43.856Z,15.50
2023-05-12T18:59:11.430Z,15.50
2023-05-12T19:01:39.006Z,15.40
2023-05-12T19:04:06.512Z,15.40
2023-05-12T19:06:35.237Z,15.30
2023-05-12T19:09:02.789Z,15.30
2023-05-12T19:11:30.318Z,15.20
2023-05-12T19:13:58.669Z,15.00
2023-05-12T19:16:26.232Z,15.00
2023-05-12T19:18:53.755Z,15.00
2023-05-12T19:21:21.294Z,14.90
2023-05-12T19:23:48.832Z,14.90
2023-05-12T19:26:17.132Z,14.80
2023-05-12T19:28:44.705Z,14.80
2023-05-12T19:31:12.330Z,14.80
2023-05-12T19:33:39.779Z,14.80
2023-05-12T19:36:08.216Z,14.70
2023-05-12T19:38:35.807Z,14.70
2023-05-12T19:41:03.347Z,14.70
2023-05-12T19:43:30.944Z,14.70
2023-05-12T19:45:59.289Z,14.90
2023-05-12T19:48:26.774Z,14.90
2023-05-12T19:50:54.359Z,14.90
2023-05-12T19:53:22.652Z,14.80
2023-05-12T19:55:50.177Z,14.80
2023-05-12T19:58:18.510Z,14.70
2023-05-12T20:00:46.035Z,14.70
2023-05-12T20:03:13.680Z,14.70
2023-05-12T20:05:41.910Z,14.60
2023-05-12T20:08:09.470Z,14.60
2023-05-12T20:10:37.003Z,14.50
2023-05-12T20:13:04.616Z,14.50
2023-05-12T20:15:32.125Z,14.50
2023-05-12T20:17:59.755Z,14.40
2023-05-12T20:20:27.222Z,14.40
2023-05-12T20:22:54.749Z,14.40
2023-05-12T20:25:23.374Z,14.30
2023-05-12T20:27:50.642Z,14.30
2023-05-12T20:30:18.168Z,14.30
2023-05-12T20:32:45.864Z,14.30
2023-05-12T20:35:14.047Z,14.20
2023-05-12T20:37:41.579Z,14.20
2023-05-12T20:40:09.289Z,14.20
2023-05-12T20:42:36.883Z,14.20
2023-05-12T20:45:04.470Z,14.20
2023-05-12T20:47:32.142Z,14.40
2023-05-12T20:49:59.618Z,14.30
2023-05-12T20:52:27.156Z,14.20
2023-05-12T20:54:57.521Z,14.40
2023-05-12T20:57:25.076Z,14.60
2023-05-12T20:59:58.557Z,14.50
2023-05-12T21:02:26.178Z,14.40
2023-05-12T21:04:53.650Z,14.30
2023-05-12T21:07:21.194Z,14.10
2023-05-12T21:09:48.723Z,14.00
2023-05-12T21:12:17.327Z,13.90
2023-05-12T21:14:44.846Z,13.90
2023-05-12T21:17:12.380Z,13.80
2023-05-12T21:19:39.974Z,13.70
2023-05-12T21:22:07.501Z,13.60
2023-05-12T21:24:35.028Z,13.50
2023-05-12T21:27:02.592Z,13.50
2023-05-12T21:29:30.125Z,13.60
2023-05-12T21:31:58.470Z,13.50
2023-05-12T21:34:25.999Z,13.50
2023-05-12T21:36:53.537Z,13.40
2023-05-12T21:39:21.072Z,13.40
2023-05-12T21:41:49.414Z,13.20
2023-05-12T21:44:17.473Z,13.20
2023-05-12T21:46:45.126Z,13.20
2023-05-12T21:49:12.564Z,13.10
2023-05-12T21:51:40.096Z,13.10
2023-05-12T21:54:08.400Z,13.10
2023-05-12T21:56:35.993Z,13.10
2023-05-12T21:59:03.517Z,13.00
2023-05-12T22:01:31.145Z,13.00
2023-05-12T22:03:59.442Z,13.50
2023-05-12T22:06:26.950Z,13.40
2023-05-12T22:08:54.487Z,13.40
2023-05-12T22:11:22.059Z,13.50
2023-05-12T22:13:49.592Z,13.40
2023-05-12T22:16:18.585Z,13.40
2023-05-12T22:18:45.516Z,13.20
2023-05-12T22:21:13.008Z,13.20
2023-05-12T22:23:40.578Z,13.20
2023-05-12T22:26:08.203Z,13.10
2023-05-12T22:28:35.737Z,13.10
2023-05-12T22:31:04.056Z,13.10
2023-05-12T22:33:31.749Z,13.10
2023-05-12T22:35:59.280Z,13.10
2023-05-12T22:38:26.802Z,13.10
2023-05-12T22:40:55.334Z,13.10
2023-05-12T22:43:22.892Z,13.10
2023-05-12T22:45:53.343Z,13.10
2023-05-12T22:48:21.176Z,13.00
2023-05-12T22:50:48.705Z,13.00
2023-05-12T22:53:16.252Z,13.20
2023-05-12T22:55:44.855Z,13.10
2023-05-12T22:58:12.383Z,13.10
2023-05-12T23:00:39.960Z,13.00
2023-05-12T23:03:07.833Z,13.00
2023-05-12T23:05:35.314Z,13.00
2023-05-12T23:08:02.848Z,13.10
2023-05-12T23:10:30.418Z,13.40
2023-05-12T23:12:57.960Z,13.30
2023-05-12T23:15:25.514Z,13.20
2023-05-12T23:17:53.901Z,13.10
2023-05-12T23:20:21.657Z,13.10
2023-05-12T23:22:48.941Z,13.10
2023-05-12T23:25:16.519Z,13.10
2023-05-12T23:27:44.053Z,13.00
2023-05-12T23:30:11.647Z,13.00
2023-05-12T23:32:39.368Z,13.00
2023-05-12T23:35:06.919Z,13.00
2023-05-12T23:37:34.368Z,13.00
2023-05-12T23:40:02.197Z,13.20
2023-05-12T23:42:29.738Z,13.10
2023-05-12T23:44:57.273Z,13.10
2023-05-12T23:47:24.884Z,13.20
2023-05-12T23:49:52.372Z,13.10
2023-05-12T23:52:20.690Z,12.90
2023-05-12T23:54:48.269Z,12.90
2023-05-12T23:57:15.795Z,12.90
2023-05-12T23:59:43.337Z,12.80
